sensor_id;sensor_type;location;lat;lon;timestamp;pressure;altitude;pressure_sealevel;temperature;humidity
48792;BME280;34587;48.816;9.420;2023-05-17T04:17:34;99338.97;;;4.41;100.00
48792;BME280;34587;48.816;9.420;2023-05-17T04:20:00;99339.13;;;4.53;100.00
48792;BME280;34587;48.816;9.420;2023-05-17T04:22:26;99342.81;;;4.70;100.00
48792;BME280;34587;48.816;9.420;2023-05-17T04:24:51;99350.03;;;4.96;100.00
48792;BME280;34587;48.816;9.420;2023-05-17T04:27:16;99346.91;;;5.18;100.00
48792;BME280;34587;48.816;9.420;2023-05-17T04:29:42;99350.22;;;5.11;98.36
48792;BME280;34587;48.816;9.420;2023-05-17T04:32:07;99353.81;;;5.24;97.58
48792;BME280;34587;48.816;9.420;2023-05-17T04:34:33;99365.00;;;5.27;94.85
48792;BME280;34587;48.816;9.420;2023-05-17T04:36:58;99364.09;;;5.25;95.02
48792;BME280;34587;48.816;9.420;2023-05-17T04:39:24;99368.56;;;5.38;95.30
48792;BME280;34587;48.816;9.420;2023-05-17T04:41:49;99370.19;;;5.32;93.59
48792;BME280;34587;48.816;9.420;2023-05-17T04:44:14;99369.31;;;5.31;92.69
48792;BME280;34587;48.816;9.420;2023-05-17T04:46:41;99372.78;;;5.35;95.11
48792;BME280;34587;48.816;9.420;2023-05-17T04:49:08;99375.47;;;5.46;95.55
48792;BME280;34587;48.816;9.420;2023-05-17T04:51:33;99372.78;;;5.33;92.75
48792;BME280;34587;48.816;9.420;2023-05-17T04:53:59;99378.91;;;5.45;91.78
48792;BME280;34587;48.816;9.420;2023-05-17T04:56:25;99375.88;;;5.78;92.70
48792;BME280;34587;48.816;9.420;2023-05-17T04:58:50;99378.44;;;5.76;91.34
48792;BME280;34587;48.816;9.420;2023-05-17T05:01:16;99382.59;;;5.66;90.50
48792;BME280;34587;48.816;9.420;2023-05-17T05:03:41;99383.78;;;5.95;90.84
48792;BME280;34587;48.816;9.420;2023-05-17T05:06:06;99389.09;;;6.13;90.62
48792;BME280;34587;48.816;9.420;2023-05-17T05:08:32;99389.34;;;6.37;90.48
48792;BME280;34587;48.816;9.420;2023-05-17T05:10:58;99385.94;;;6.38;88.89
48792;BME280;34587;48.816;9.420;2023-05-17T05:13:23;99392.66;;;6.24;88.47
48792;BME280;34587;48.816;9.420;2023-05-17T05:15:48;99391.13;;;6.44;88.17
48792;BME280;34587;48.816;9.420;2023-05-17T05:18:14;99397.31;;;6.71;87.97
48792;BME280;34587;48.816;9.420;2023-05-17T05:20:39;99388.13;;;7.02;84.52
48792;BME280;34587;48.816;9.420;2023-05-17T05:23:04;99400.19;;;7.11;81.95
48792;BME280;34587;48.816;9.420;2023-05-17T05:25:30;99398.47;;;7.13;82.08
48792;BME280;34587;48.816;9.420;2023-05-17T05:27:56;99396.88;;;7.30;81.95
48792;BME280;34587;48.816;9.420;2023-05-17T05:30:22;99401.97;;;7.21;81.98
48792;BME280;34587;48.816;9.420;2023-05-17T05:32:48;99414.81;;;7.18;82.23
48792;BME280;34587;48.816;9.420;2023-05-17T05:35:14;99408.84;;;7.25;82.52
48792;BME280;34587;48.816;9.420;2023-05-17T05:37:41;99405.53;;;7.47;83.08
48792;BME280;34587;48.816;9.420;2023-05-17T05:40:08;99408.19;;;7.66;81.65
48792;BME280;34587;48.816;9.420;2023-05-17T05:42:33;99412.41;;;7.48;82.61
48792;BME280;34587;48.816;9.420;2023-05-17T05:44:59;99410.75;;;7.66;82.72
48792;BME280;34587;48.816;9.420;2023-05-17T05:47:24;99404.63;;;7.38;82.56
48792;BME280;34587;48.816;9.420;2023-05-17T05:49:49;99412.47;;;7.68;81.75
48792;BME280;34587;48.816;9.420;2023-05-17T05:52:15;99410.06;;;8.13;79.62
48792;BME280;34587;48.816;9.420;2023-05-17T05:54:40;99403.97;;;7.92;79.63
48792;BME280;34587;48.816;9.420;2023-05-17T05:57:05;99410.97;;;8.45;79.17
48792;BME280;34587;48.816;9.420;2023-05-17T05:59:31;99416.16;;;8.73;77.22
48792;BME280;34587;48.816;9.420;2023-05-17T06:01:56;99419.59;;;8.99;76.23
48792;BME280;34587;48.816;9.420;2023-05-17T06:04:21;99416.97;;;9.19;76.36
48792;BME280;34587;48.816;9.420;2023-05-17T06:06:47;99414.31;;;9.36;76.01
48792;BME280;34587;48.816;9.420;2023-05-17T06:09:12;99422.97;;;9.38;73.90
48792;BME280;34587;48.816;9.420;2023-05-17T06:11:43;99428.09;;;9.41;73.13
48792;BME280;34587;48.816;9.420;2023-05-17T06:14:08;99422.81;;;9.78;72.30
48792;BME280;34587;48.816;9.420;2023-05-17T06:16:34;99428.94;;;9.59;70.91
48792;BME280;34587;48.816;9.420;2023-05-17T06:18:59;99416.66;;;9.99;70.39
48792;BME280;34587;48.816;9.420;2023-05-17T06:21:25;99419.09;;;10.31;70.78
48792;BME280;34587;48.816;9.420;2023-05-17T06:23:51;99420.09;;;10.02;70.83
48792;BME280;34587;48.816;9.420;2023-05-17T06:26:16;99428.56;;;10.35;71.90
48792;BME280;34587;48.816;9.420;2023-05-17T06:28:41;99421.84;;;9.99;70.49
48792;BME280;34587;48.816;9.420;2023-05-17T06:31:07;99416.28;;;10.60;68.43
48792;BME280;34587;48.816;9.420;2023-05-17T06:33:32;99419.97;;;11.30;65.99
48792;BME280;34587;48.816;9.420;2023-05-17T06:35:57;99428.34;;;10.66;66.78
48792;BME280;34587;48.816;9.420;2023-05-17T06:38:23;99420.59;;;11.52;65.37
48792;BME280;34587;48.816;9.420;2023-05-17T06:40:52;99417.88;;;11.63;64.84
48792;BME280;34587;48.816;9.420;2023-05-17T06:43:18;99422.78;;;11.87;60.73
48792;BME280;34587;48.816;9.420;2023-05-17T06:45:43;99427.22;;;11.76;62.06
48792;BME280;34587;48.816;9.420;2023-05-17T06:48:09;99433.72;;;11.38;62.98
48792;BME280;34587;48.816;9.420;2023-05-17T06:50:34;99422.38;;;12.75;60.00
48792;BME280;34587;48.816;9.420;2023-05-17T06:53:00;99422.81;;;13.00;57.96
48792;BME280;34587;48.816;9.420;2023-05-17T06:55:25;99432.03;;;13.18;56.34
48792;BME280;34587;48.816;9.420;2023-05-17T06:57:50;99419.78;;;14.87;54.24
48792;BME280;34587;48.816;9.420;2023-05-17T07:00:16;99415.91;;;16.54;47.75
48792;BME280;34587;48.816;9.420;2023-05-17T07:02:41;99412.19;;;16.05;48.22
48792;BME280;34587;48.816;9.420;2023-05-17T07:05:07;99423.84;;;14.97;49.83
48792;BME280;34587;48.816;9.420;2023-05-17T07:07:32;99426.31;;;15.36;50.48
48792;BME280;34587;48.816;9.420;2023-05-17T07:09:57;99418.38;;;16.03;48.16
48792;BME280;34587;48.816;9.420;2023-05-17T07:12:23;99425.63;;;17.04;46.04
48792;BME280;34587;48.816;9.420;2023-05-17T07:14:48;99417.84;;;15.90;46.90
48792;BME280;34587;48.816;9.420;2023-05-17T07:17:13;99414.72;;;15.79;45.22
48792;BME280;34587;48.816;9.420;2023-05-17T07:19:39;99414.72;;;17.66;45.25
48792;BME280;34587;48.816;9.420;2023-05-17T07:22:04;99418.31;;;19.18;40.65
48792;BME280;34587;48.816;9.420;2023-05-17T07:24:29;99426.84;;;15.49;45.54
48792;BME280;34587;48.816;9.420;2023-05-17T07:26:55;99425.41;;;16.29;45.62
48792;BME280;34587;48.816;9.420;2023-05-17T07:29:20;99447.22;;;13.42;51.61
48792;BME280;34587;48.816;9.420;2023-05-17T07:31:45;99445.00;;;13.21;53.22
48792;BME280;34587;48.816;9.420;2023-05-17T07:34:12;99430.59;;;14.72;49.91
48792;BME280;34587;48.816;9.420;2023-05-17T07:36:37;99426.25;;;15.39;48.20
48792;BME280;34587;48.816;9.420;2023-05-17T07:39:03;99429.34;;;14.10;51.36
48792;BME280;34587;48.816;9.420;2023-05-17T07:41:29;99424.53;;;16.00;46.58
48792;BME280;34587;48.816;9.420;2023-05-17T07:43:55;99420.44;;;18.22;41.84
48792;BME280;34587;48.816;9.420;2023-05-17T07:46:21;99413.47;;;20.63;36.45
48792;BME280;34587;48.816;9.420;2023-05-17T07:48:46;99413.75;;;21.78;34.51
48792;BME280;34587;48.816;9.420;2023-05-17T07:51:11;99421.88;;;22.07;33.91
48792;BME280;34587;48.816;9.420;2023-05-17T07:53:37;99434.88;;;18.56;39.53
48792;BME280;34587;48.816;9.420;2023-05-17T07:56:02;99439.59;;;16.22;43.78
48792;BME280;34587;48.816;9.420;2023-05-17T07:58:27;99431.97;;;16.42;43.15
48792;BME280;34587;48.816;9.420;2023-05-17T08:00:52;99440.84;;;15.79;44.49
48792;BME280;34587;48.816;9.420;2023-05-17T08:03:18;99434.75;;;16.92;43.22
48792;BME280;34587;48.816;9.420;2023-05-17T08:05:43;99438.47;;;17.11;42.18
48792;BME280;34587;48.816;9.420;2023-05-17T08:08:09;99432.25;;;16.89;42.75
48792;BME280;34587;48.816;9.420;2023-05-17T08:10:35;99437.44;;;17.65;40.87
48792;BME280;34587;48.816;9.420;2023-05-17T08:13:02;99437.13;;;17.25;42.25
48792;BME280;34587;48.816;9.420;2023-05-17T08:15:28;99440.28;;;14.28;46.79
48792;BME280;34587;48.816;9.420;2023-05-17T08:17:54;99443.47;;;16.08;44.24
48792;BME280;34587;48.816;9.420;2023-05-17T08:20:19;99432.56;;;15.61;43.71
48792;BME280;34587;48.816;9.420;2023-05-17T08:22:44;99440.75;;;15.16;45.54
48792;BME280;34587;48.816;9.420;2023-05-17T08:25:09;99436.16;;;14.92;46.41
48792;BME280;34587;48.816;9.420;2023-05-17T08:27:35;99430.97;;;15.57;44.37
48792;BME280;34587;48.816;9.420;2023-05-17T08:30:00;99429.94;;;15.94;43.79
48792;BME280;34587;48.816;9.420;2023-05-17T08:32:26;99445.94;;;14.45;46.94
48792;BME280;34587;48.816;9.420;2023-05-17T08:34:52;99439.69;;;14.55;47.15
48792;BME280;34587;48.816;9.420;2023-05-17T08:37:17;99431.38;;;16.04;44.29
48792;BME280;34587;48.816;9.420;2023-05-17T08:39:43;99431.09;;;16.69;43.00
48792;BME280;34587;48.816;9.420;2023-05-17T08:42:08;99426.59;;;17.01;42.97
48792;BME280;34587;48.816;9.420;2023-05-17T08:44:34;99423.66;;;18.53;40.02
48792;BME280;34587;48.816;9.420;2023-05-17T08:47:02;99427.66;;;19.66;38.30
48792;BME280;34587;48.816;9.420;2023-05-17T08:49:29;99431.38;;;20.19;36.13
48792;BME280;34587;48.816;9.420;2023-05-17T08:51:59;99429.66;;;21.09;34.62
48792;BME280;34587;48.816;9.420;2023-05-17T08:54:25;99431.22;;;21.13;34.83
48792;BME280;34587;48.816;9.420;2023-05-17T08:56:53;99438.19;;;21.32;34.20
48792;BME280;34587;48.816;9.420;2023-05-17T08:59:18;99429.31;;;20.81;35.55
48792;BME280;34587;48.816;9.420;2023-05-17T09:01:46;99450.94;;;17.30;41.48
48792;BME280;34587;48.816;9.420;2023-05-17T09:04:15;99440.91;;;15.76;43.31
48792;BME280;34587;48.816;9.420;2023-05-17T09:06:41;99444.28;;;16.10;44.63
48792;BME280;34587;48.816;9.420;2023-05-17T09:09:08;99437.47;;;18.80;39.65
48792;BME280;34587;48.816;9.420;2023-05-17T09:11:33;99439.81;;;16.96;41.91
48792;BME280;34587;48.816;9.420;2023-05-17T09:14:00;99447.06;;;16.04;44.78
48792;BME280;34587;48.816;9.420;2023-05-17T09:16:27;99443.28;;;15.85;45.48
48792;BME280;34587;48.816;9.420;2023-05-17T09:18:55;99452.13;;;14.80;47.22
48792;BME280;34587;48.816;9.420;2023-05-17T09:21:21;99446.19;;;14.75;47.87
48792;BME280;34587;48.816;9.420;2023-05-17T09:23:47;99454.34;;;13.79;49.67
48792;BME280;34587;48.816;9.420;2023-05-17T09:26:12;99449.44;;;14.44;49.25
48792;BME280;34587;48.816;9.420;2023-05-17T09:28:39;99449.66;;;14.35;48.90
48792;BME280;34587;48.816;9.420;2023-05-17T09:31:09;99461.31;;;13.77;50.21
48792;BME280;34587;48.816;9.420;2023-05-17T09:33:41;99445.63;;;14.22;49.65
48792;BME280;34587;48.816;9.420;2023-05-17T09:36:20;99450.22;;;13.67;50.26
48792;BME280;34587;48.816;9.420;2023-05-17T09:41:18;99459.56;;;13.79;48.18
48792;BME280;34587;48.816;9.420;2023-05-17T09:43:44;99445.84;;;14.11;46.43
48792;BME280;34587;48.816;9.420;2023-05-17T09:46:11;99455.41;;;14.10;47.08
48792;BME280;34587;48.816;9.420;2023-05-17T09:48:37;99461.56;;;14.48;45.27
48792;BME280;34587;48.816;9.420;2023-05-17T09:51:02;99454.88;;;14.35;46.00
48792;BME280;34587;48.816;9.420;2023-05-17T09:53:32;99451.06;;;14.51;46.35
48792;BME280;34587;48.816;9.420;2023-05-17T09:56:02;99447.84;;;15.11;44.66
48792;BME280;34587;48.816;9.420;2023-05-17T09:58:31;99450.47;;;15.44;44.82
48792;BME280;34587;48.816;9.420;2023-05-17T10:01:01;99449.84;;;15.68;43.73
48792;BME280;34587;48.816;9.420;2023-05-17T10:03:35;99443.63;;;16.32;43.10
48792;BME280;34587;48.816;9.420;2023-05-17T10:06:02;99454.03;;;16.05;42.34
48792;BME280;34587;48.816;9.420;2023-05-17T10:08:30;99443.66;;;16.02;42.43
48792;BME280;34587;48.816;9.420;2023-05-17T10:10:59;99444.84;;;16.48;41.87
48792;BME280;34587;48.816;9.420;2023-05-17T10:13:33;99455.59;;;15.47;43.45
48792;BME280;34587;48.816;9.420;2023-05-17T10:15:59;99446.16;;;15.10;44.58
48792;BME280;34587;48.816;9.420;2023-05-17T10:18:26;99458.13;;;15.17;41.25
48792;BME280;34587;48.816;9.420;2023-05-17T10:20:53;99454.25;;;15.34;42.39
48792;BME280;34587;48.816;9.420;2023-05-17T10:23:19;99452.53;;;16.54;40.53
48792;BME280;34587;48.816;9.420;2023-05-17T10:25:46;99439.38;;;18.09;38.99
48792;BME280;34587;48.816;9.420;2023-05-17T10:28:11;99459.59;;;17.32;38.32
48792;BME280;34587;48.816;9.420;2023-05-17T10:30:39;99460.63;;;17.28;38.79
48792;BME280;34587;48.816;9.420;2023-05-17T10:33:05;99462.09;;;15.66;41.60
48792;BME280;34587;48.816;9.420;2023-05-17T10:35:32;99469.59;;;15.12;44.33
48792;BME280;34587;48.816;9.420;2023-05-17T10:37:58;99466.00;;;14.82;44.46
48792;BME280;34587;48.816;9.420;2023-05-17T10:40:23;99460.09;;;15.42;43.62
48792;BME280;34587;48.816;9.420;2023-05-17T10:42:51;99458.22;;;15.14;44.64
48792;BME280;34587;48.816;9.420;2023-05-17T10:45:21;99461.69;;;15.80;43.50
48792;BME280;34587;48.816;9.420;2023-05-17T10:47:49;99450.28;;;16.42;41.26
48792;BME280;34587;48.816;9.420;2023-05-17T10:50:23;99448.25;;;16.80;40.80
48792;BME280;34587;48.816;9.420;2023-05-17T10:52:49;99437.69;;;18.30;39.23
48792;BME280;34587;48.816;9.420;2023-05-17T10:55:20;99446.06;;;17.94;39.44
48792;BME280;34587;48.816;9.420;2023-05-17T11:00:40;99460.31;;;17.10;38.57
48792;BME280;34587;48.816;9.420;2023-05-17T11:03:14;99468.97;;;16.30;40.36
48792;BME280;34587;48.816;9.420;2023-05-17T11:05:43;99467.63;;;15.54;42.24
48792;BME280;34587;48.816;9.420;2023-05-17T11:08:13;99472.25;;;15.10;43.05
48792;BME280;34587;48.816;9.420;2023-05-17T11:11:09;99464.81;;;15.29;43.72
48792;BME280;34587;48.816;9.420;2023-05-17T11:13:46;99461.16;;;15.35;45.08
48792;BME280;34587;48.816;9.420;2023-05-17T11:16:16;99467.78;;;14.80;46.22
48792;BME280;34587;48.816;9.420;2023-05-17T11:21:12;99465.38;;;15.40;44.73
48792;BME280;34587;48.816;9.420;2023-05-17T11:23:39;99458.88;;;15.23;44.68
48792;BME280;34587;48.816;9.420;2023-05-17T11:26:16;99456.19;;;15.58;42.73
48792;BME280;34587;48.816;9.420;2023-05-17T11:28:43;99458.59;;;15.66;43.19
48792;BME280;34587;48.816;9.420;2023-05-17T11:31:09;99457.13;;;15.23;44.60
48792;BME280;34587;48.816;9.420;2023-05-17T11:33:52;99449.28;;;16.46;42.56
48792;BME280;34587;48.816;9.420;2023-05-17T11:36:19;99444.56;;;16.57;41.31
48792;BME280;34587;48.816;9.420;2023-05-17T11:38:50;99447.06;;;16.04;43.37
48792;BME280;34587;48.816;9.420;2023-05-17T11:41:36;99449.34;;;15.54;44.68
48792;BME280;34587;48.816;9.420;2023-05-17T11:44:01;99447.63;;;14.86;44.78
48792;BME280;34587;48.816;9.420;2023-05-17T11:46:28;99442.19;;;14.58;46.47
48792;BME280;34587;48.816;9.420;2023-05-17T11:48:54;99448.63;;;14.81;44.33
48792;BME280;34587;48.816;9.420;2023-05-17T11:51:21;99447.63;;;15.21;44.50
48792;BME280;34587;48.816;9.420;2023-05-17T11:53:47;99443.31;;;14.48;45.64
48792;BME280;34587;48.816;9.420;2023-05-17T11:56:13;99446.91;;;14.80;47.04
48792;BME280;34587;48.816;9.420;2023-05-17T11:58:40;99456.97;;;14.95;47.17
48792;BME280;34587;48.816;9.420;2023-05-17T12:01:06;99464.06;;;14.12;47.29
48792;BME280;34587;48.816;9.420;2023-05-17T12:03:33;99459.75;;;14.50;46.61
48792;BME280;34587;48.816;9.420;2023-05-17T12:08:27;99468.63;;;13.59;49.12
48792;BME280;34587;48.816;9.420;2023-05-17T12:10:53;99465.75;;;13.27;48.45
48792;BME280;34587;48.816;9.420;2023-05-17T12:13:20;99463.09;;;14.17;48.37
48792;BME280;34587;48.816;9.420;2023-05-17T12:16:15;99458.78;;;13.74;48.17
48792;BME280;34587;48.816;9.420;2023-05-17T12:18:48;99451.03;;;14.12;46.45
48792;BME280;34587;48.816;9.420;2023-05-17T12:21:14;99450.50;;;14.76;46.17
48792;BME280;34587;48.816;9.420;2023-05-17T12:23:42;99443.19;;;15.55;44.99
48792;BME280;34587;48.816;9.420;2023-05-17T12:26:12;99442.53;;;15.80;44.86
48792;BME280;34587;48.816;9.420;2023-05-17T12:28:42;99443.56;;;16.05;43.26
48792;BME280;34587;48.816;9.420;2023-05-17T12:31:20;99437.06;;;16.75;42.75
48792;BME280;34587;48.816;9.420;2023-05-17T12:33:49;99439.28;;;16.87;41.59
48792;BME280;34587;48.816;9.420;2023-05-17T12:36:15;99434.28;;;16.25;41.49
48792;BME280;34587;48.816;9.420;2023-05-17T12:38:41;99434.81;;;16.06;42.73
48792;BME280;34587;48.816;9.420;2023-05-17T12:41:12;99427.31;;;16.80;41.41
48792;BME280;34587;48.816;9.420;2023-05-17T12:43:38;99426.25;;;16.85;40.85
48792;BME280;34587;48.816;9.420;2023-05-17T12:46:15;99417.50;;;16.58;41.13
48792;BME280;34587;48.816;9.420;2023-05-17T12:48:45;99425.88;;;16.13;43.33
48792;BME280;34587;48.816;9.420;2023-05-17T12:51:12;99433.03;;;15.12;46.31
48792;BME280;34587;48.816;9.420;2023-05-17T12:53:55;99436.72;;;14.71;46.94
48792;BME280;34587;48.816;9.420;2023-05-17T13:01:44;99443.84;;;13.82;50.97
48792;BME280;34587;48.816;9.420;2023-05-17T13:04:10;99448.63;;;14.03;51.53
48792;BME280;34587;48.816;9.420;2023-05-17T13:06:46;99432.03;;;14.46;50.20
48792;BME280;34587;48.816;9.420;2023-05-17T13:09:12;99433.16;;;15.09;49.83
48792;BME280;34587;48.816;9.420;2023-05-17T13:11:40;99429.09;;;15.61;48.01
48792;BME280;34587;48.816;9.420;2023-05-17T13:14:06;99435.63;;;15.46;46.70
48792;BME280;34587;48.816;9.420;2023-05-17T13:16:33;99440.81;;;14.42;47.85
48792;BME280;34587;48.816;9.420;2023-05-17T13:18:58;99428.53;;;14.49;49.41
48792;BME280;34587;48.816;9.420;2023-05-17T13:21:23;99428.88;;;14.32;49.96
48792;BME280;34587;48.816;9.420;2023-05-17T13:23:49;99439.22;;;14.35;49.61
48792;BME280;34587;48.816;9.420;2023-05-17T13:26:16;99422.81;;;15.37;47.36
48792;BME280;34587;48.816;9.420;2023-05-17T13:28:42;99427.66;;;15.51;46.21
48792;BME280;34587;48.816;9.420;2023-05-17T13:31:08;99439.38;;;14.68;48.35
48792;BME280;34587;48.816;9.420;2023-05-17T13:33:33;99430.50;;;15.74;46.30
48792;BME280;34587;48.816;9.420;2023-05-17T13:35:58;99429.66;;;15.08;47.86
48792;BME280;34587;48.816;9.420;2023-05-17T13:38:24;99434.84;;;14.76;47.26
48792;BME280;34587;48.816;9.420;2023-05-17T13:40:49;99433.22;;;14.33;48.63
48792;BME280;34587;48.816;9.420;2023-05-17T13:43:15;99438.91;;;14.50;49.40
48792;BME280;34587;48.816;9.420;2023-05-17T13:45:41;99431.53;;;13.47;51.23
48792;BME280;34587;48.816;9.420;2023-05-17T13:48:06;99437.78;;;13.83;51.46
48792;BME280;34587;48.816;9.420;2023-05-17T13:50:31;99432.66;;;13.78;51.89
48792;BME280;34587;48.816;9.420;2023-05-17T13:52:57;99435.84;;;13.49;51.28
48792;BME280;34587;48.816;9.420;2023-05-17T13:55:22;99434.84;;;13.98;50.30
48792;BME280;34587;48.816;9.420;2023-05-17T13:57:48;99438.78;;;13.31;50.35
48792;BME280;34587;48.816;9.420;2023-05-17T14:00:13;99440.56;;;13.27;50.45
48792;BME280;34587;48.816;9.420;2023-05-17T14:02:39;99435.78;;;13.51;50.80
48792;BME280;34587;48.816;9.420;2023-05-17T14:05:04;99437.25;;;14.07;48.94
48792;BME280;34587;48.816;9.420;2023-05-17T14:07:31;99435.50;;;14.47;47.17
48792;BME280;34587;48.816;9.420;2023-05-17T14:09:56;99442.19;;;13.78;46.83
48792;BME280;34587;48.816;9.420;2023-05-17T14:12:22;99442.44;;;13.66;46.87
48792;BME280;34587;48.816;9.420;2023-05-17T14:14:47;99455.88;;;13.89;46.74
48792;BME280;34587;48.816;9.420;2023-05-17T14:17:12;99454.22;;;13.85;46.93
48792;BME280;34587;48.816;9.420;2023-05-17T14:19:37;99458.25;;;13.56;46.71
48792;BME280;34587;48.816;9.420;2023-05-17T14:22:03;99459.41;;;13.42;48.32
48792;BME280;34587;48.816;9.420;2023-05-17T14:24:28;99448.13;;;13.41;47.07
48792;BME280;34587;48.816;9.420;2023-05-17T14:26:53;99452.50;;;13.84;46.64
48792;BME280;34587;48.816;9.420;2023-05-17T14:29:19;99455.22;;;13.78;46.13
48792;BME280;34587;48.816;9.420;2023-05-17T14:31:44;99452.41;;;13.87;46.84
48792;BME280;34587;48.816;9.420;2023-05-17T14:34:09;99445.19;;;14.01;47.63
48792;BME280;34587;48.816;9.420;2023-05-17T14:36:34;99450.94;;;14.17;47.17
48792;BME280;34587;48.816;9.420;2023-05-17T14:39:02;99442.22;;;14.18;46.21
48792;BME280;34587;48.816;9.420;2023-05-17T14:41:28;99444.78;;;14.20;46.82
48792;BME280;34587;48.816;9.420;2023-05-17T14:43:53;99453.31;;;13.86;46.78
48792;BME280;34587;48.816;9.420;2023-05-17T14:46:18;99449.19;;;14.18;46.86
48792;BME280;34587;48.816;9.420;2023-05-17T14:48:44;99448.44;;;14.12;45.70
48792;BME280;34587;48.816;9.420;2023-05-17T14:51:09;99455.75;;;13.95;47.30
48792;BME280;34587;48.816;9.420;2023-05-17T14:53:34;99451.84;;;13.28;48.87
48792;BME280;34587;48.816;9.420;2023-05-17T14:55:59;99459.72;;;13.23;49.63
48792;BME280;34587;48.816;9.420;2023-05-17T14:58:26;99450.09;;;13.30;50.23
48792;BME280;34587;48.816;9.420;2023-05-17T15:00:54;99452.91;;;13.64;50.30
48792;BME280;34587;48.816;9.420;2023-05-17T15:03:23;99450.66;;;13.46;50.43
48792;BME280;34587;48.816;9.420;2023-05-17T15:05:55;99454.50;;;12.71;51.85
48792;BME280;34587;48.816;9.420;2023-05-17T15:08:20;99457.94;;;12.73;52.63
48792;BME280;34587;48.816;9.420;2023-05-17T15:10:49;99460.88;;;13.05;52.10
48792;BME280;34587;48.816;9.420;2023-05-17T15:13:14;99453.16;;;13.01;51.73
48792;BME280;34587;48.816;9.420;2023-05-17T15:15:39;99450.69;;;12.93;52.60
48792;BME280;34587;48.816;9.420;2023-05-17T15:18:04;99456.00;;;12.87;52.26
48792;BME280;34587;48.816;9.420;2023-05-17T15:20:31;99457.25;;;13.14;52.47
48792;BME280;34587;48.816;9.420;2023-05-17T15:22:56;99459.63;;;12.75;52.05
48792;BME280;34587;48.816;9.420;2023-05-17T15:25:22;99459.41;;;12.89;51.30
48792;BME280;34587;48.816;9.420;2023-05-17T15:27:47;99460.34;;;12.86;51.66
48792;BME280;34587;48.816;9.420;2023-05-17T15:30:13;99456.97;;;12.80;51.18
48792;BME280;34587;48.816;9.420;2023-05-17T15:32:39;99454.16;;;13.45;50.49
48792;BME280;34587;48.816;9.420;2023-05-17T15:35:05;99456.78;;;13.42;50.00
48792;BME280;34587;48.816;9.420;2023-05-17T15:37:31;99459.66;;;13.73;50.71
48792;BME280;34587;48.816;9.420;2023-05-17T15:40:05;99456.09;;;13.77;48.51
48792;BME280;34587;48.816;9.420;2023-05-17T15:42:32;99464.94;;;13.70;48.62
48792;BME280;34587;48.816;9.420;2023-05-17T15:44:57;99467.94;;;13.93;49.14
48792;BME280;34587;48.816;9.420;2023-05-17T15:47:22;99461.44;;;13.71;50.13
48792;BME280;34587;48.816;9.420;2023-05-17T15:49:48;99462.84;;;13.87;49.44
48792;BME280;34587;48.816;9.420;2023-05-17T15:52:13;99462.78;;;13.90;48.82
48792;BME280;34587;48.816;9.420;2023-05-17T15:54:39;99461.75;;;13.55;50.07
48792;BME280;34587;48.816;9.420;2023-05-17T15:57:06;99468.50;;;13.66;50.29
48792;BME280;34587;48.816;9.420;2023-05-17T15:59:31;99457.25;;;14.05;49.57
48792;BME280;34587;48.816;9.420;2023-05-17T16:01:56;99450.66;;;13.89;49.28
48792;BME280;34587;48.816;9.420;2023-05-17T16:04:22;99459.28;;;13.91;50.10
48792;BME280;34587;48.816;9.420;2023-05-17T16:06:47;99453.94;;;13.97;48.67
48792;BME280;34587;48.816;9.420;2023-05-17T16:09:12;99454.50;;;14.13;47.69
48792;BME280;34587;48.816;9.420;2023-05-17T16:11:38;99446.44;;;14.62;46.55
48792;BME280;34587;48.816;9.420;2023-05-17T16:14:04;99445.34;;;14.73;46.72
48792;BME280;34587;48.816;9.420;2023-05-17T16:16:29;99445.19;;;14.79;44.80
48792;BME280;34587;48.816;9.420;2023-05-17T16:18:55;99440.38;;;14.62;44.94
48792;BME280;34587;48.816;9.420;2023-05-17T16:21:21;99445.13;;;15.16;44.15
48792;BME280;34587;48.816;9.420;2023-05-17T16:23:46;99437.91;;;15.57;43.63
48792;BME280;34587;48.816;9.420;2023-05-17T16:26:12;99440.03;;;16.36;42.64
48792;BME280;34587;48.816;9.420;2023-05-17T16:28:37;99429.34;;;16.42;42.08
48792;BME280;34587;48.816;9.420;2023-05-17T16:31:03;99431.53;;;16.28;41.97
48792;BME280;34587;48.816;9.420;2023-05-17T16:33:29;99439.50;;;15.31;42.14
48792;BME280;34587;48.816;9.420;2023-05-17T16:35:56;99433.84;;;15.47;42.51
48792;BME280;34587;48.816;9.420;2023-05-17T16:38:21;99433.81;;;15.81;42.66
48792;BME280;34587;48.816;9.420;2023-05-17T16:40:47;99434.84;;;15.75;42.66
48792;BME280;34587;48.816;9.420;2023-05-17T16:43:12;99439.84;;;14.85;43.57
48792;BME280;34587;48.816;9.420;2023-05-17T16:45:41;99434.69;;;14.82;43.75
48792;BME280;34587;48.816;9.420;2023-05-17T16:48:06;99439.13;;;14.41;44.06
48792;BME280;34587;48.816;9.420;2023-05-17T16:50:32;99443.06;;;13.78;45.87
48792;BME280;34587;48.816;9.420;2023-05-17T16:52:57;99429.63;;;13.98;46.26
48792;BME280;34587;48.816;9.420;2023-05-17T16:55:22;99432.84;;;14.09;45.51
48792;BME280;34587;48.816;9.420;2023-05-17T16:57:47;99433.56;;;13.76;46.34
48792;BME280;34587;48.816;9.420;2023-05-17T17:00:13;99431.59;;;13.87;45.05
48792;BME280;34587;48.816;9.420;2023-05-17T17:02:39;99427.59;;;14.12;44.35
48792;BME280;34587;48.816;9.420;2023-05-17T17:05:04;99428.84;;;14.72;44.13
48792;BME280;34587;48.816;9.420;2023-05-17T17:07:30;99430.25;;;15.20;43.34
48792;BME280;34587;48.816;9.420;2023-05-17T17:09:55;99427.31;;;15.64;41.73
48792;BME280;34587;48.816;9.420;2023-05-17T17:12:20;99417.34;;;15.46;41.75
48792;BME280;34587;48.816;9.420;2023-05-17T17:14:46;99422.25;;;15.26;42.46
48792;BME280;34587;48.816;9.420;2023-05-17T17:17:11;99426.91;;;15.14;42.50
48792;BME280;34587;48.816;9.420;2023-05-17T17:19:37;99429.25;;;14.91;43.86
48792;BME280;34587;48.816;9.420;2023-05-17T17:22:03;99431.41;;;14.74;43.75
48792;BME280;34587;48.816;9.420;2023-05-17T17:24:30;99427.97;;;14.72;44.71
48792;BME280;34587;48.816;9.420;2023-05-17T17:26:55;99422.97;;;14.62;44.15
48792;BME280;34587;48.816;9.420;2023-05-17T17:29:21;99436.59;;;14.36;45.03
48792;BME280;34587;48.816;9.420;2023-05-17T17:31:46;99436.28;;;13.70;45.71